Latest Coastal Weather Observations for Hillarys Point Boat Harbour

IDW60701

Issued at 7:53 pm WST Wednesday 26 April 2017 (issued every 10 minutes, with the page automatically refreshed every 10 minutes)

About coastal observations | Map of coastal stations | Coastal observations for WA | Marine services | Other Formats
Station Details ID: 009265 Name: HILLARYS BOAT HARBOUR NTC AWS Lat: -31.83 Lon: 115.74 Height: 0.0 m
Data from the previous 72 hours. | See also: Recent months for locations in Western Australia
Date/Time
WST
Temp
°C
Wind Pressure Rain since
9am
mm
Weather Cloud Vis
km
Sea
Height
m
Swell
Dir  Spd
kts
Gust
kts
hPa Trend Height
m
Period
s
Dir
26/07:30pm 20.2 S 2 6 1024.9 - - - - - - - - -
26/07:00pm 20.5 SSE 4 9 1024.6 - - - - - - - - -
26/06:30pm 20.2 S 3 9 1024.4 - - - - - - - - -
26/06:00pm 20.3 S 3 10 1024.1 - - - - - - - - -
26/05:30pm 20.3 S 3 8 1024.0 - - - - - - - - -
26/05:00pm 20.6 SSW 4 9 1023.9 - - - - - - - - -
26/04:30pm 21.1 S 4 11 1023.9 - - - - - - - - -
26/04:00pm 20.7 SSW 5 11 1024.0 - - - - - - - - -
26/03:30pm 21.1 SSW 6 14 1024.1 - - - - - - - - -
26/03:00pm 20.8 SSW 6 14 1024.0 - - - - - - - - -
26/02:30pm 21.1 SSW 6 12 1024.0 - - - - - - - - -
26/02:00pm 21.2 SSW 6 10 1024.0 - - - - - - - - -
26/01:30pm 21.0 SW 6 10 1024.2 - - - - - - - - -
26/01:00pm 21.3 SW 7 10 1024.5 - - - - - - - - -
26/12:30pm 21.4 SW 6 8 1024.9 - - - - - - - - -
26/12:00pm 20.9 SW 6 7 1025.4 - - - - - - - - -
26/11:30am 20.8 SSW 3 6 1026.0 - - - - - - - - -
26/11:00am 21.1 ESE 2 4 1026.4 - - - - - - - - -
26/10:30am 20.5 E 3 8 1026.6 - - - - - - - - -
26/10:00am 19.7 ENE 5 9 1026.6 - - - - - - - - -
26/09:30am 18.6 ENE 6 9 1026.7 - - - - - - - - -
26/09:00am 17.6 E 5 9 1026.9 - - - - - - - - -
26/08:30am 16.4 E 6 10 1026.8 - - - - - - - - -
26/08:00am 15.3 E 5 10 1026.7 - - - - - - - - -
26/07:30am 14.7 E 5 9 1026.4 - - - - - - - - -
26/07:00am 14.1 E 5 9 1026.1 - - - - - - - - -
26/06:30am 13.9 ENE 6 9 1025.9 - - - - - - - - -
26/06:00am 14.4 E 5 9 1025.8 - - - - - - - - -
26/05:30am 14.5 ENE 6 10 1025.8 - - - - - - - - -
26/05:00am 14.5 E 4 10 1025.6 - - - - - - - - -
26/04:30am 14.0 ENE 4 7 1025.7 - - - - - - - - -
26/04:00am 14.6 ENE 3 6 1025.7 - - - - - - - - -
26/03:30am 14.8 ENE 3 6 1025.7 - - - - - - - - -
26/03:00am 14.7 ENE 1 3 1026.0 - - - - - - - - -
26/02:30am 15.1 CALM 0 2 1026.0 - - - - - - - - -
26/02:00am 15.6 SE 1 3 1025.9 - - - - - - - - -
26/01:30am 15.9 SE 1 3 1025.9 - - - - - - - - -
26/01:00am 16.3 SSE 1 4 1026.0 - - - - - - - - -
26/12:30am 16.7 SSE 2 4 1026.1 - - - - - - - - -
26/12:00am 17.2 SSE 3 7 1026.1 - - - - - - - - -
 
Date/Time
WST
Temp
°C
Wind Pressure Rain since
9am
mm
Weather Cloud Vis
km
Sea
Height
m
Swell
Dir  Spd
kts
Gust
kts
hPa Trend Height
m
Period
s
Dir
25/11:30pm 17.4 SSE 4 8 1026.2 - - - - - - - - -
25/11:00pm 17.7 SSE 4 9 1026.1 - - - - - - - - -
25/10:30pm 17.7 SSE 5 10 1026.4 - - - - - - - - -
25/10:00pm 17.8 SSE 5 9 1026.3 - - - - - - - - -
25/09:30pm 17.9 SSE 5 9 1026.2 - - - - - - - - -
25/09:00pm 18.3 SSE 5 8 1026.1 - - - - - - - - -
25/08:30pm 18.7 S 4 10 1025.9 - - - - - - - - -
25/08:00pm 19.0 S 3 8 1025.6 - - - - - - - - -
25/07:30pm 19.3 S 3 11 1025.1 - - - - - - - - -
25/07:00pm 19.6 S 5 12 1024.7 - - - - - - - - -
25/06:30pm 19.6 S 5 13 1024.4 - - - - - - - - -
25/06:00pm 19.7 SSW 6 12 1024.0 - - - - - - - - -
25/05:30pm 19.9 SSW 7 14 1023.7 - - - - - - - - -
25/05:00pm 20.1 SSW 9 16 1023.5 - - - - - - - - -
25/04:30pm 20.7 SSW 8 13 1023.4 - - - - - - - - -
25/04:00pm 20.6 SSW 7 11 1023.4 - - - - - - - - -
25/03:30pm 20.5 SSW 7 12 1023.5 - - - - - - - - -
25/03:00pm 20.2 SSW 6 14 1023.4 - - - - - - - - -
25/02:30pm 19.7 SSW 7 13 1023.5 - - - - - - - - -
25/02:00pm 19.4 SSW 7 13 1023.5 - - - - - - - - -
25/01:30pm 19.6 SSW 7 12 1023.5 - - - - - - - - -
25/01:00pm 19.1 SW 7 12 1023.9 - - - - - - - - -
25/12:30pm 18.9 SW 7 12 1024.2 - - - - - - - - -
25/12:00pm 19.4 SW 6 10 1024.7 - - - - - - - - -
25/11:30am 19.4 SW 3 8 1025.1 - - - - - - - - -
25/11:00am 18.9 SSE 1 4 1025.5 - - - - - - - - -
25/10:30am 18.2 SE 3 6 1025.9 - - - - - - - - -
25/10:00am 17.2 SSE 3 9 1026.1 - - - - - - - - -
25/09:30am 16.6 SE 3 7 1026.3 - - - - - - - - -
25/09:00am 15.9 SSE 4 8 1026.3 - - - - - - - - -
25/08:30am 15.4 SSE 5 10 1026.0 - - - - - - - - -
25/08:00am 15.1 SSE 4 7 1025.7 - - - - - - - - -
25/07:30am 14.6 SSE 5 8 1025.4 - - - - - - - - -
25/07:00am 14.5 SE 3 9 1024.9 - - - - - - - - -
25/06:30am 14.7 SSE 5 9 1024.7 - - - - - - - - -
25/06:00am 15.0 SSE 5 9 1024.3 - - - - - - - - -
25/05:30am 15.0 SE 4 9 1024.1 - - - - - - - - -
25/05:00am 15.1 SE 1 5 1023.8 - - - - - - - - -
25/04:30am 15.4 SSE 4 7 1023.5 - - - - - - - - -
25/04:00am 15.6 SSE 3 8 1023.4 - - - - - - - - -
25/03:30am 15.8 SSE 5 9 1023.3 - - - - - - - - -
25/03:00am 16.1 S 3 9 1023.3 - - - - - - - - -
25/02:30am 16.7 S 4 9 1023.3 - - - - - - - - -
25/02:00am 16.9 SSE 3 7 1023.2 - - - - - - - - -
25/01:30am 17.2 SSE 6 9 1022.9 - - - - - - - - -
25/01:00am 17.5 SSE 4 8 1022.6 - - - - - - - - -
25/12:30am 17.9 SSE 5 9 1022.4 - - - - - - - - -
25/12:00am 18.3 SSE 4 9 1022.4 - - - - - - - - -
 
Date/Time
WST
Temp
°C
Wind Pressure Rain since
9am
mm
Weather Cloud Vis
km
Sea
Height
m
Swell
Dir  Spd
kts
Gust
kts
hPa Trend Height
m
Period
s
Dir
24/11:30pm 18.6 SSE 6 13 1022.2 - - - - - - - - -
24/11:00pm 18.9 SSE 5 10 1022.2 - - - - - - - - -
24/10:30pm 19.5 S 4 10 1022.1 - - - - - - - - -
24/10:00pm 19.9 SSW 6 13 1021.9 - - - - - - - - -
24/09:30pm 20.1 SSW 5 11 1021.8 - - - - - - - - -
24/09:00pm 20.2 S 4 9 1021.6 - - - - - - - - -
24/08:30pm 20.3 S 4 12 1021.3 - - - - - - - - -
24/08:00pm 20.4 SSW 4 13 1021.2 - - - - - - - - -
24/07:30pm 20.4 SSW 5 11 1021.0 - - - - - - - - -
24/07:00pm 20.4 SSW 5 13 1020.7 - - - - - - - - -
24/06:30pm 20.1 SSW 6 13 1020.2 - - - - - - - - -
24/06:00pm 20.1 SSW 6 12 1019.9 - - - - - - - - -
24/05:30pm 20.5 SSW 5 11 1019.6 - - - - - - - - -
24/05:00pm 20.4 SSW 5 12 1019.4 - - - - - - - - -
24/04:30pm 20.7 SSW 6 11 1019.4 - - - - - - - - -
24/04:00pm 20.8 SSW 5 10 1019.2 - - - - - - - - -
24/03:30pm 20.8 SSW 5 9 1019.0 - - - - - - - - -
24/03:00pm 20.8 SSW 5 9 1019.1 - - - - - - - - -
24/02:30pm 20.6 SSW 6 11 1019.2 - - - - - - - - -
24/02:00pm 20.9 SW 6 10 1019.4 - - - - - - - - -
24/01:30pm 20.8 SW 7 11 1019.6 - - - - - - - - -
24/01:00pm 21.1 SSW 6 10 1019.8 - - - - - - - - -
24/12:30pm 21.1 SSW 4 7 1020.2 - - - - - - - - -
24/12:00pm 21.1 SW 5 11 1020.6 - - - - - - - - -
24/11:30am 22.0 SSW 3 7 1020.8 - - - - - - - - -
24/11:00am 22.6 SE 2 4 1021.1 - - - - - - - - -
24/10:30am 21.6 ENE 5 9 1021.4 - - - - - - - - -
24/10:00am 20.6 ENE 5 9 1021.6 - - - - - - - - -
24/09:30am 19.4 ENE 6 10 1021.7 - - - - - - - - -
24/09:00am 18.4 ENE 7 11 1021.6 - - - - - - - - -
24/08:30am 17.6 ENE 7 13 1021.6 - - - - - - - - -
24/08:00am 16.6 ENE 7 12 1021.3 - - - - - - - - -
24/07:30am 16.0 ENE 6 10 1021.1 - - - - - - - - -
24/07:00am 15.5 ENE 7 10 1020.6 - - - - - - - - -
24/06:30am 15.6 ENE 5 9 1020.4 - - - - - - - - -
24/06:00am 15.8 E 4 7 1020.3 - - - - - - - - -
24/05:30am 16.1 SE 1 4 1020.3 - - - - - - - - -
24/05:00am 16.4 ESE 2 6 1020.2 - - - - - - - - -
24/04:30am 16.6 E 2 6 1020.0 - - - - - - - - -
24/04:00am 17.1 SE 2 6 1020.0 - - - - - - - - -
24/03:30am 17.6 SE 2 7 1019.8 - - - - - - - - -
24/03:00am 17.4 SE 1 4 1019.7 - - - - - - - - -
24/02:30am 17.6 SE 1 5 1019.6 - - - - - - - - -
24/02:00am 17.9 E 3 8 1019.4 - - - - - - - - -
24/01:30am 18.2 E 5 9 1019.3 - - - - - - - - -
24/01:00am 18.4 ENE 6 9 1019.3 - - - - - - - - -
24/12:30am 18.7 E 4 7 1019.4 - - - - - - - - -
24/12:00am 19.0 E 2 6 1019.8 - - - - - - - - -
 
Date/Time
WST
Temp
°C
Wind Pressure Rain since
9am
mm
Weather Cloud Vis
km
Sea
Height
m
Swell
Dir  Spd
kts
Gust
kts
hPa Trend Height
m
Period
s
Dir
23/11:30pm 19.6 E 2 6 1020.0 - - - - - - - - -
23/11:00pm 20.1 E 2 5 1020.1 - - - - - - - - -
23/10:30pm 20.4 E 2 5 1020.3 - - - - - - - - -
23/10:00pm 20.9 ENE 3 6 1020.1 - - - - - - - - -
23/09:30pm 21.5 E 4 8 1019.9 - - - - - - - - -
23/09:00pm 21.9 E 4 7 1019.7 - - - - - - - - -
23/08:30pm 22.5 E 8 15 1019.7 - - - - - - - - -
23/08:00pm 23.2 E 5 11 1019.2 - - - - - - - - -

Other Formats:

Comma delimited format used in spreadsheet applications
http://www.bom.gov.au/fwo/IDW60701/IDW60701.95605.axf

JavaScript Object Notation format (JSON) in row-major order
http://www.bom.gov.au/fwo/IDW60701/IDW60701.95605.json